sensor_id;sensor_type;location;lat;lon;timestamp;P1;durP1;ratioP1;P2;durP2;ratioP2
40541;SDS011;49288;52.194;5.676;2023-01-01T00:02:38;43.72;;;17.27;;
40541;SDS011;49288;52.194;5.676;2023-01-01T00:07:43;50.00;;;21.38;;
40541;SDS011;49288;52.194;5.676;2023-01-01T00:12:46;58.20;;;23.25;;
40541;SDS011;49288;52.194;5.676;2023-01-01T00:17:49;61.92;;;26.08;;
40541;SDS011;49288;52.194;5.676;2023-01-01T00:22:52;49.65;;;23.25;;
40541;SDS011;49288;52.194;5.676;2023-01-01T00:27:57;61.50;;;24.63;;
40541;SDS011;49288;52.194;5.676;2023-01-01T00:33:00;55.72;;;24.70;;
40541;SDS011;49288;52.194;5.676;2023-01-01T00:38:03;54.60;;;23.23;;
40541;SDS011;49288;52.194;5.676;2023-01-01T00:43:06;58.60;;;21.88;;
40541;SDS011;49288;52.194;5.676;2023-01-01T00:48:08;55.80;;;23.45;;
40541;SDS011;49288;52.194;5.676;2023-01-01T00:53:13;45.95;;;19.65;;
40541;SDS011;49288;52.194;5.676;2023-01-01T00:58:16;44.63;;;20.02;;
40541;SDS011;49288;52.194;5.676;2023-01-01T01:03:21;56.10;;;19.95;;
40541;SDS011;49288;52.194;5.676;2023-01-01T01:08:31;42.78;;;19.33;;
40541;SDS011;49288;52.194;5.676;2023-01-01T01:13:36;38.63;;;16.05;;
40541;SDS011;49288;52.194;5.676;2023-01-01T01:18:39;33.97;;;12.82;;
40541;SDS011;49288;52.194;5.676;2023-01-01T01:23:43;35.33;;;13.52;;
40541;SDS011;49288;52.194;5.676;2023-01-01T01:28:46;38.17;;;13.10;;
40541;SDS011;49288;52.194;5.676;2023-01-01T01:33:51;43.88;;;11.35;;
40541;SDS011;49288;52.194;5.676;2023-01-01T01:38:54;25.92;;;9.38;;
40541;SDS011;49288;52.194;5.676;2023-01-01T01:43:58;18.92;;;8.43;;
40541;SDS011;49288;52.194;5.676;2023-01-01T01:49:15;26.92;;;8.43;;
40541;SDS011;49288;52.194;5.676;2023-01-01T01:59:29;24.50;;;7.57;;
40541;SDS011;49288;52.194;5.676;2023-01-01T02:04:34;27.58;;;7.45;;
40541;SDS011;49288;52.194;5.676;2023-01-01T02:09:37;29.88;;;7.22;;
40541;SDS011;49288;52.194;5.676;2023-01-01T02:14:40;19.23;;;7.28;;
40541;SDS011;49288;52.194;5.676;2023-01-01T02:19:56;20.27;;;6.65;;
40541;SDS011;49288;52.194;5.676;2023-01-01T02:25:24;22.02;;;6.10;;
40541;SDS011;49288;52.194;5.676;2023-01-01T02:30:35;14.98;;;5.40;;
40541;SDS011;49288;52.194;5.676;2023-01-01T02:35:39;18.88;;;6.38;;
40541;SDS011;49288;52.194;5.676;2023-01-01T02:40:45;27.50;;;7.47;;
40541;SDS011;49288;52.194;5.676;2023-01-01T02:46:09;18.45;;;5.75;;
40541;SDS011;49288;52.194;5.676;2023-01-01T02:56:36;17.23;;;4.82;;
40541;SDS011;49288;52.194;5.676;2023-01-01T03:01:52;13.13;;;5.25;;
40541;SDS011;49288;52.194;5.676;2023-01-01T03:07:12;12.90;;;4.72;;
40541;SDS011;49288;52.194;5.676;2023-01-01T03:17:44;13.45;;;4.28;;
40541;SDS011;49288;52.194;5.676;2023-01-01T03:22:51;15.55;;;4.60;;
40541;SDS011;49288;52.194;5.676;2023-01-01T03:33:05;14.20;;;4.35;;
40541;SDS011;49288;52.194;5.676;2023-01-01T03:48:42;7.75;;;3.35;;
40541;SDS011;49288;52.194;5.676;2023-01-01T03:54:16;11.53;;;3.47;;
40541;SDS011;49288;52.194;5.676;2023-01-01T04:05:21;13.40;;;3.75;;
40541;SDS011;49288;52.194;5.676;2023-01-01T04:10:25;12.90;;;3.63;;
40541;SDS011;49288;52.194;5.676;2023-01-01T04:15:30;11.48;;;3.75;;
40541;SDS011;49288;52.194;5.676;2023-01-01T04:20:36;21.15;;;4.07;;
40541;SDS011;49288;52.194;5.676;2023-01-01T04:25:39;15.57;;;3.90;;
40541;SDS011;49288;52.194;5.676;2023-01-01T04:30:41;16.08;;;3.85;;
40541;SDS011;49288;52.194;5.676;2023-01-01T04:35:43;19.55;;;3.80;;
40541;SDS011;49288;52.194;5.676;2023-01-01T04:40:56;18.35;;;3.83;;
40541;SDS011;49288;52.194;5.676;2023-01-01T04:46:00;15.37;;;3.43;;
40541;SDS011;49288;52.194;5.676;2023-01-01T04:51:04;14.05;;;3.92;;
40541;SDS011;49288;52.194;5.676;2023-01-01T04:56:08;12.07;;;3.88;;
40541;SDS011;49288;52.194;5.676;2023-01-01T05:01:19;13.23;;;3.95;;
40541;SDS011;49288;52.194;5.676;2023-01-01T05:06:23;23.83;;;4.03;;
40541;SDS011;49288;52.194;5.676;2023-01-01T05:11:27;10.23;;;3.67;;
40541;SDS011;49288;52.194;5.676;2023-01-01T05:16:32;17.45;;;3.92;;
40541;SDS011;49288;52.194;5.676;2023-01-01T05:21:37;13.10;;;3.42;;
40541;SDS011;49288;52.194;5.676;2023-01-01T05:26:42;17.60;;;4.28;;
40541;SDS011;49288;52.194;5.676;2023-01-01T05:31:46;17.10;;;3.72;;
40541;SDS011;49288;52.194;5.676;2023-01-01T05:36:48;13.02;;;4.03;;
40541;SDS011;49288;52.194;5.676;2023-01-01T05:41:51;16.60;;;3.63;;
40541;SDS011;49288;52.194;5.676;2023-01-01T05:46:54;7.10;;;2.50;;
40541;SDS011;49288;52.194;5.676;2023-01-01T05:51:57;11.00;;;3.30;;
40541;SDS011;49288;52.194;5.676;2023-01-01T05:57:00;15.97;;;3.97;;
40541;SDS011;49288;52.194;5.676;2023-01-01T06:02:03;12.35;;;3.25;;
40541;SDS011;49288;52.194;5.676;2023-01-01T06:07:07;13.65;;;3.40;;
40541;SDS011;49288;52.194;5.676;2023-01-01T06:12:10;14.37;;;3.10;;
40541;SDS011;49288;52.194;5.676;2023-01-01T06:17:12;11.60;;;3.60;;
40541;SDS011;49288;52.194;5.676;2023-01-01T06:22:15;18.75;;;3.10;;
40541;SDS011;49288;52.194;5.676;2023-01-01T06:27:18;13.27;;;3.58;;
40541;SDS011;49288;52.194;5.676;2023-01-01T06:32:21;6.93;;;2.30;;
40541;SDS011;49288;52.194;5.676;2023-01-01T06:37:26;6.00;;;2.05;;
40541;SDS011;49288;52.194;5.676;2023-01-01T06:42:30;7.10;;;2.33;;
40541;SDS011;49288;52.194;5.676;2023-01-01T06:47:35;7.82;;;2.53;;
40541;SDS011;49288;52.194;5.676;2023-01-01T06:52:40;12.52;;;2.40;;
40541;SDS011;49288;52.194;5.676;2023-01-01T06:57:43;14.25;;;2.85;;
40541;SDS011;49288;52.194;5.676;2023-01-01T07:02:47;10.32;;;2.08;;
40541;SDS011;49288;52.194;5.676;2023-01-01T07:07:50;11.65;;;2.58;;
40541;SDS011;49288;52.194;5.676;2023-01-01T07:12:53;13.57;;;2.67;;
40541;SDS011;49288;52.194;5.676;2023-01-01T07:17:56;10.40;;;2.30;;
40541;SDS011;49288;52.194;5.676;2023-01-01T07:22:58;11.10;;;2.40;;
40541;SDS011;49288;52.194;5.676;2023-01-01T07:28:03;7.55;;;2.13;;
40541;SDS011;49288;52.194;5.676;2023-01-01T07:33:09;12.65;;;1.88;;
40541;SDS011;49288;52.194;5.676;2023-01-01T07:38:13;8.52;;;2.00;;
40541;SDS011;49288;52.194;5.676;2023-01-01T07:43:17;6.80;;;1.80;;
40541;SDS011;49288;52.194;5.676;2023-01-01T07:48:20;8.73;;;2.40;;
40541;SDS011;49288;52.194;5.676;2023-01-01T07:53:23;9.45;;;2.13;;
40541;SDS011;49288;52.194;5.676;2023-01-01T07:58:25;13.00;;;2.20;;
40541;SDS011;49288;52.194;5.676;2023-01-01T08:03:28;16.00;;;2.28;;
40541;SDS011;49288;52.194;5.676;2023-01-01T08:08:31;9.10;;;1.65;;
40541;SDS011;49288;52.194;5.676;2023-01-01T08:13:34;8.27;;;1.83;;
40541;SDS011;49288;52.194;5.676;2023-01-01T08:18:36;10.13;;;2.17;;
40541;SDS011;49288;52.194;5.676;2023-01-01T08:23:42;10.65;;;2.65;;
40541;SDS011;49288;52.194;5.676;2023-01-01T08:28:45;14.48;;;2.08;;
40541;SDS011;49288;52.194;5.676;2023-01-01T08:33:55;11.88;;;2.20;;
40541;SDS011;49288;52.194;5.676;2023-01-01T08:38:58;10.25;;;2.08;;
40541;SDS011;49288;52.194;5.676;2023-01-01T08:44:01;4.60;;;1.48;;
40541;SDS011;49288;52.194;5.676;2023-01-01T08:49:04;7.10;;;1.80;;
40541;SDS011;49288;52.194;5.676;2023-01-01T08:54:07;8.82;;;1.77;;
40541;SDS011;49288;52.194;5.676;2023-01-01T08:59:10;14.68;;;2.40;;
40541;SDS011;49288;52.194;5.676;2023-01-01T09:04:13;9.65;;;2.00;;
40541;SDS011;49288;52.194;5.676;2023-01-01T09:09:16;9.38;;;1.75;;
40541;SDS011;49288;52.194;5.676;2023-01-01T09:14:21;7.95;;;2.00;;
40541;SDS011;49288;52.194;5.676;2023-01-01T09:19:24;10.50;;;2.25;;
40541;SDS011;49288;52.194;5.676;2023-01-01T09:24:29;11.13;;;2.83;;
40541;SDS011;49288;52.194;5.676;2023-01-01T09:29:32;6.72;;;2.15;;
40541;SDS011;49288;52.194;5.676;2023-01-01T09:34:34;21.02;;;2.75;;
40541;SDS011;49288;52.194;5.676;2023-01-01T09:39:56;17.13;;;3.65;;
40541;SDS011;49288;52.194;5.676;2023-01-01T09:45:02;11.38;;;2.28;;
40541;SDS011;49288;52.194;5.676;2023-01-01T09:50:26;17.13;;;1.90;;
40541;SDS011;49288;52.194;5.676;2023-01-01T09:55:43;9.48;;;2.60;;
40541;SDS011;49288;52.194;5.676;2023-01-01T10:06:23;17.77;;;2.88;;
40541;SDS011;49288;52.194;5.676;2023-01-01T10:11:48;9.43;;;2.28;;
40541;SDS011;49288;52.194;5.676;2023-01-01T10:17:26;8.82;;;2.42;;
40541;SDS011;49288;52.194;5.676;2023-01-01T10:22:43;12.63;;;2.58;;
40541;SDS011;49288;52.194;5.676;2023-01-01T10:27:52;20.10;;;2.63;;
40541;SDS011;49288;52.194;5.676;2023-01-01T10:33:04;11.07;;;2.27;;
40541;SDS011;49288;52.194;5.676;2023-01-01T10:38:16;16.38;;;3.08;;
40541;SDS011;49288;52.194;5.676;2023-01-01T10:48:28;15.20;;;2.60;;
40541;SDS011;49288;52.194;5.676;2023-01-01T10:53:34;15.70;;;3.60;;
40541;SDS011;49288;52.194;5.676;2023-01-01T10:58:46;13.80;;;2.95;;
40541;SDS011;49288;52.194;5.676;2023-01-01T11:03:55;12.70;;;2.95;;
40541;SDS011;49288;52.194;5.676;2023-01-01T11:09:02;14.80;;;3.40;;
40541;SDS011;49288;52.194;5.676;2023-01-01T11:14:17;18.77;;;4.55;;
40541;SDS011;49288;52.194;5.676;2023-01-01T11:24:59;26.40;;;4.05;;
40541;SDS011;49288;52.194;5.676;2023-01-01T11:30:19;22.48;;;3.67;;
40541;SDS011;49288;52.194;5.676;2023-01-01T11:35:30;17.50;;;3.42;;
40541;SDS011;49288;52.194;5.676;2023-01-01T11:40:35;21.50;;;4.55;;
40541;SDS011;49288;52.194;5.676;2023-01-01T11:45:41;21.38;;;4.47;;
40541;SDS011;49288;52.194;5.676;2023-01-01T11:50:48;19.02;;;4.38;;
40541;SDS011;49288;52.194;5.676;2023-01-01T12:01:23;21.90;;;4.43;;
40541;SDS011;49288;52.194;5.676;2023-01-01T12:06:42;19.30;;;4.18;;
40541;SDS011;49288;52.194;5.676;2023-01-01T12:17:11;20.67;;;4.40;;
40541;SDS011;49288;52.194;5.676;2023-01-01T12:22:34;14.63;;;4.40;;
40541;SDS011;49288;52.194;5.676;2023-01-01T12:37:59;18.23;;;4.68;;
40541;SDS011;49288;52.194;5.676;2023-01-01T12:43:07;24.38;;;5.80;;
40541;SDS011;49288;52.194;5.676;2023-01-01T12:59:05;22.38;;;5.22;;
40541;SDS011;49288;52.194;5.676;2023-01-01T13:04:18;15.07;;;4.75;;
40541;SDS011;49288;52.194;5.676;2023-01-01T13:09:23;22.38;;;5.05;;
40541;SDS011;49288;52.194;5.676;2023-01-01T13:14:27;29.52;;;6.53;;
40541;SDS011;49288;52.194;5.676;2023-01-01T13:19:30;27.65;;;6.13;;
40541;SDS011;49288;52.194;5.676;2023-01-01T13:24:34;24.45;;;5.35;;
40541;SDS011;49288;52.194;5.676;2023-01-01T13:29:41;27.88;;;4.45;;
40541;SDS011;49288;52.194;5.676;2023-01-01T13:34:58;22.38;;;4.47;;
40541;SDS011;49288;52.194;5.676;2023-01-01T13:40:03;21.45;;;4.93;;
40541;SDS011;49288;52.194;5.676;2023-01-01T13:51:18;20.83;;;4.35;;
40541;SDS011;49288;52.194;5.676;2023-01-01T13:56:54;43.25;;;3.92;;
40541;SDS011;49288;52.194;5.676;2023-01-01T14:02:07;20.23;;;5.15;;
40541;SDS011;49288;52.194;5.676;2023-01-01T14:12:54;22.80;;;3.97;;
40541;SDS011;49288;52.194;5.676;2023-01-01T14:29:00;17.48;;;4.13;;
40541;SDS011;49288;52.194;5.676;2023-01-01T14:34:27;25.73;;;5.25;;
40541;SDS011;49288;52.194;5.676;2023-01-01T14:44:36;31.17;;;4.95;;
40541;SDS011;49288;52.194;5.676;2023-01-01T14:49:40;19.83;;;5.90;;
40541;SDS011;49288;52.194;5.676;2023-01-01T14:54:43;24.80;;;5.57;;
40541;SDS011;49288;52.194;5.676;2023-01-01T14:59:48;33.43;;;6.30;;
40541;SDS011;49288;52.194;5.676;2023-01-01T15:04:56;19.65;;;4.72;;
40541;SDS011;49288;52.194;5.676;2023-01-01T15:10:00;21.50;;;5.63;;
40541;SDS011;49288;52.194;5.676;2023-01-01T15:15:04;20.98;;;4.97;;
40541;SDS011;49288;52.194;5.676;2023-01-01T15:25:20;21.98;;;5.25;;
40541;SDS011;49288;52.194;5.676;2023-01-01T15:35:34;27.58;;;6.10;;
40541;SDS011;49288;52.194;5.676;2023-01-01T15:40:43;23.23;;;7.07;;
40541;SDS011;49288;52.194;5.676;2023-01-01T15:45:55;16.80;;;4.80;;
40541;SDS011;49288;52.194;5.676;2023-01-01T15:51:03;24.20;;;6.35;;
40541;SDS011;49288;52.194;5.676;2023-01-01T15:56:29;23.05;;;5.97;;
40541;SDS011;49288;52.194;5.676;2023-01-01T16:01:36;24.73;;;6.38;;
40541;SDS011;49288;52.194;5.676;2023-01-01T16:06:43;26.35;;;6.25;;
40541;SDS011;49288;52.194;5.676;2023-01-01T16:11:51;22.75;;;5.57;;
40541;SDS011;49288;52.194;5.676;2023-01-01T16:17:14;18.58;;;6.43;;
40541;SDS011;49288;52.194;5.676;2023-01-01T16:22:18;20.73;;;6.20;;
40541;SDS011;49288;52.194;5.676;2023-01-01T16:27:21;17.00;;;4.93;;
40541;SDS011;49288;52.194;5.676;2023-01-01T16:32:26;22.25;;;6.07;;
40541;SDS011;49288;52.194;5.676;2023-01-01T16:37:30;21.40;;;6.05;;
40541;SDS011;49288;52.194;5.676;2023-01-01T16:42:33;29.30;;;7.20;;
40541;SDS011;49288;52.194;5.676;2023-01-01T16:52:40;27.95;;;5.75;;
40541;SDS011;49288;52.194;5.676;2023-01-01T16:57:46;20.75;;;5.80;;
40541;SDS011;49288;52.194;5.676;2023-01-01T17:02:49;26.83;;;6.43;;
40541;SDS011;49288;52.194;5.676;2023-01-01T17:07:51;25.98;;;7.10;;
40541;SDS011;49288;52.194;5.676;2023-01-01T17:12:54;17.48;;;5.85;;
40541;SDS011;49288;52.194;5.676;2023-01-01T17:18:03;21.65;;;5.60;;
40541;SDS011;49288;52.194;5.676;2023-01-01T17:23:05;30.88;;;6.03;;
40541;SDS011;49288;52.194;5.676;2023-01-01T17:28:08;21.85;;;5.57;;
40541;SDS011;49288;52.194;5.676;2023-01-01T17:33:13;30.65;;;7.00;;
40541;SDS011;49288;52.194;5.676;2023-01-01T17:38:16;26.65;;;6.13;;
40541;SDS011;49288;52.194;5.676;2023-01-01T17:43:20;24.13;;;5.00;;
40541;SDS011;49288;52.194;5.676;2023-01-01T17:48:22;19.10;;;4.88;;
40541;SDS011;49288;52.194;5.676;2023-01-01T17:53:25;15.25;;;4.07;;
40541;SDS011;49288;52.194;5.676;2023-01-01T17:58:30;28.57;;;5.23;;
40541;SDS011;49288;52.194;5.676;2023-01-01T18:03:40;13.13;;;4.10;;
40541;SDS011;49288;52.194;5.676;2023-01-01T18:08:43;21.42;;;6.03;;
40541;SDS011;49288;52.194;5.676;2023-01-01T18:13:48;29.02;;;6.60;;
40541;SDS011;49288;52.194;5.676;2023-01-01T18:18:51;30.65;;;8.40;;
40541;SDS011;49288;52.194;5.676;2023-01-01T18:23:55;26.70;;;6.85;;
40541;SDS011;49288;52.194;5.676;2023-01-01T18:28:59;27.42;;;7.43;;
40541;SDS011;49288;52.194;5.676;2023-01-01T18:34:03;30.35;;;8.02;;
40541;SDS011;49288;52.194;5.676;2023-01-01T18:39:29;24.17;;;7.43;;
40541;SDS011;49288;52.194;5.676;2023-01-01T18:44:34;29.23;;;7.72;;
40541;SDS011;49288;52.194;5.676;2023-01-01T18:49:37;19.50;;;5.70;;
40541;SDS011;49288;52.194;5.676;2023-01-01T18:54:40;31.35;;;9.02;;
40541;SDS011;49288;52.194;5.676;2023-01-01T18:59:43;33.42;;;7.75;;
40541;SDS011;49288;52.194;5.676;2023-01-01T19:04:46;25.70;;;6.90;;
40541;SDS011;49288;52.194;5.676;2023-01-01T19:09:50;21.88;;;6.68;;
40541;SDS011;49288;52.194;5.676;2023-01-01T19:15:00;20.27;;;7.63;;
40541;SDS011;49288;52.194;5.676;2023-01-01T19:20:08;24.95;;;7.68;;
40541;SDS011;49288;52.194;5.676;2023-01-01T19:25:35;16.67;;;6.35;;
40541;SDS011;49288;52.194;5.676;2023-01-01T19:30:39;21.13;;;6.72;;
40541;SDS011;49288;52.194;5.676;2023-01-01T19:35:42;24.60;;;6.43;;
40541;SDS011;49288;52.194;5.676;2023-01-01T19:40:45;16.60;;;6.47;;
40541;SDS011;49288;52.194;5.676;2023-01-01T19:46:11;32.67;;;7.18;;
40541;SDS011;49288;52.194;5.676;2023-01-01T19:51:14;20.95;;;7.25;;
40541;SDS011;49288;52.194;5.676;2023-01-01T19:56:17;18.88;;;6.45;;
40541;SDS011;49288;52.194;5.676;2023-01-01T20:01:19;16.35;;;6.97;;
40541;SDS011;49288;52.194;5.676;2023-01-01T20:06:24;16.87;;;6.70;;
40541;SDS011;49288;52.194;5.676;2023-01-01T20:11:27;19.55;;;7.03;;
40541;SDS011;49288;52.194;5.676;2023-01-01T20:16:34;11.77;;;6.00;;
40541;SDS011;49288;52.194;5.676;2023-01-01T20:21:37;21.17;;;6.13;;
40541;SDS011;49288;52.194;5.676;2023-01-01T20:26:59;18.02;;;7.30;;
40541;SDS011;49288;52.194;5.676;2023-01-01T20:32:02;14.80;;;6.40;;
40541;SDS011;49288;52.194;5.676;2023-01-01T20:37:06;17.60;;;7.43;;
40541;SDS011;49288;52.194;5.676;2023-01-01T20:42:27;21.95;;;8.18;;
40541;SDS011;49288;52.194;5.676;2023-01-01T20:47:31;17.50;;;8.38;;
40541;SDS011;49288;52.194;5.676;2023-01-01T20:52:34;15.05;;;8.10;;
40541;SDS011;49288;52.194;5.676;2023-01-01T20:57:37;15.35;;;7.85;;
40541;SDS011;49288;52.194;5.676;2023-01-01T21:02:40;12.15;;;6.82;;
40541;SDS011;49288;52.194;5.676;2023-01-01T21:07:43;19.48;;;7.20;;
40541;SDS011;49288;52.194;5.676;2023-01-01T21:12:46;12.95;;;7.07;;
40541;SDS011;49288;52.194;5.676;2023-01-01T21:17:49;12.20;;;5.78;;
40541;SDS011;49288;52.194;5.676;2023-01-01T21:22:52;15.38;;;5.80;;
40541;SDS011;49288;52.194;5.676;2023-01-01T21:27:56;14.40;;;6.60;;
40541;SDS011;49288;52.194;5.676;2023-01-01T21:32:59;16.73;;;6.63;;
40541;SDS011;49288;52.194;5.676;2023-01-01T21:38:08;17.42;;;7.03;;
40541;SDS011;49288;52.194;5.676;2023-01-01T21:48:26;19.08;;;7.60;;
40541;SDS011;49288;52.194;5.676;2023-01-01T21:53:32;22.42;;;7.68;;
40541;SDS011;49288;52.194;5.676;2023-01-01T21:58:41;21.00;;;8.55;;
40541;SDS011;49288;52.194;5.676;2023-01-01T22:04:14;21.58;;;7.78;;
40541;SDS011;49288;52.194;5.676;2023-01-01T22:09:23;15.95;;;7.75;;
40541;SDS011;49288;52.194;5.676;2023-01-01T22:14:52;15.20;;;8.40;;
40541;SDS011;49288;52.194;5.676;2023-01-01T22:19:58;17.17;;;8.47;;
40541;SDS011;49288;52.194;5.676;2023-01-01T22:25:06;17.65;;;8.35;;
40541;SDS011;49288;52.194;5.676;2023-01-01T22:35:21;17.67;;;7.93;;
40541;SDS011;49288;52.194;5.676;2023-01-01T22:40:26;23.70;;;8.63;;
40541;SDS011;49288;52.194;5.676;2023-01-01T22:45:30;20.30;;;8.13;;
40541;SDS011;49288;52.194;5.676;2023-01-01T22:50:34;19.37;;;8.93;;
40541;SDS011;49288;52.194;5.676;2023-01-01T22:55:37;28.13;;;9.23;;
40541;SDS011;49288;52.194;5.676;2023-01-01T23:00:40;18.17;;;8.77;;
40541;SDS011;49288;52.194;5.676;2023-01-01T23:05:42;16.98;;;7.07;;
40541;SDS011;49288;52.194;5.676;2023-01-01T23:10:46;15.23;;;7.50;;
40541;SDS011;49288;52.194;5.676;2023-01-01T23:15:48;16.30;;;8.70;;
40541;SDS011;49288;52.194;5.676;2023-01-01T23:21:08;20.58;;;8.63;;
40541;SDS011;49288;52.194;5.676;2023-01-01T23:26:12;23.35;;;9.70;;
40541;SDS011;49288;52.194;5.676;2023-01-01T23:31:15;22.73;;;9.38;;
40541;SDS011;49288;52.194;5.676;2023-01-01T23:36:25;27.25;;;8.40;;
40541;SDS011;49288;52.194;5.676;2023-01-01T23:41:29;15.70;;;8.05;;
40541;SDS011;49288;52.194;5.676;2023-01-01T23:46:32;19.58;;;8.85;;
40541;SDS011;49288;52.194;5.676;2023-01-01T23:51:54;22.08;;;7.68;;
40541;SDS011;49288;52.194;5.676;2023-01-01T23:56:57;22.48;;;8.95;;
